Time;durP1;ratioP1;P1;durP2;ratioP2;P2;SDS_P1;SDS_P2;PMS_P1;PMS_P2;Temp;Humidity;BMP_temperature;BMP_pressure;BME280_temperature;BME280_humidity;BME280_pressure;Samples;Min_cycle;Max_cycle;Signal;HPM_P1;HPM_P2
2022/06/27 00:02:11;;;;;;;1.50;1.30;;;;;;;;;;5003630;28;20182;-83
2022/06/27 00:04:36;;;;;;;3.63;1.60;;;19.10;99.90;;;;;;5002528;28;20219;-83
2022/06/27 00:07:02;;;;;;;3.30;2.10;;;19.10;99.90;;;;;;5003310;28;20180;-86
2022/06/27 00:09:28;;;;;;;1.67;1.40;;;19.10;99.90;;;;;;5002101;28;20235;-86
2022/06/27 00:11:55;;;;;;;2.13;1.40;;;19.10;99.90;;;;;;4999524;28;20230;-86
2022/06/27 00:14:21;;;;;;;1.60;1.50;;;19.20;99.90;;;;;;4998879;28;20200;-85
2022/06/27 00:16:47;;;;;;;2.00;1.60;;;19.20;99.90;;;;;;5000022;28;20180;-85
2022/06/27 00:19:13;;;;;;;1.50;1.40;;;19.10;99.90;;;;;;5000171;28;20206;-85
2022/06/27 00:21:38;;;;;;;1.40;1.30;;;19.10;99.90;;;;;;4999798;28;20556;-85
2022/06/27 00:24:04;;;;;;;1.77;1.40;;;19.10;99.90;;;;;;5000309;28;20207;-85
2022/06/27 00:26:30;;;;;;;2.07;1.40;;;19.10;99.90;;;;;;5002489;28;20204;-85
2022/06/27 00:28:56;;;;;;;1.97;1.40;;;19.10;99.90;;;;;;5014290;28;20185;-85
2022/06/27 00:31:22;;;;;;;1.47;1.37;;;19.00;99.90;;;;;;5019840;28;20184;-85
2022/06/27 00:33:47;;;;;;;3.20;1.43;;;19.10;99.90;;;;;;5004385;28;20259;-85
2022/06/27 00:36:13;;;;;;;1.60;1.50;;;19.00;99.90;;;;;;5002489;28;20219;-87
2022/06/27 00:38:40;;;;;;;6.53;1.70;;;19.10;99.90;;;;;;5003704;28;20554;-86
2022/06/27 00:41:06;;;;;;;1.50;1.30;;;19.10;99.90;;;;;;5003507;28;20255;-86
2022/06/27 00:43:32;;;;;;;2.43;1.53;;;;;;;;;;5004284;28;20606;-86
2022/06/27 00:45:58;;;;;;;1.90;1.50;;;19.10;99.90;;;;;;5004017;28;20595;-86
2022/06/27 00:48:23;;;;;;;2.50;1.40;;;19.10;99.90;;;;;;5005884;28;20207;-86
2022/06/27 00:50:49;;;;;;;1.77;1.50;;;19.10;99.90;;;;;;5007767;28;20197;-86
2022/06/27 00:53:15;;;;;;;1.83;1.30;;;19.10;99.90;;;;;;5008885;28;20190;-84
2022/06/27 00:55:41;;;;;;;2.07;1.40;;;19.10;99.90;;;;;;4997976;28;20220;-84
2022/06/27 00:58:07;;;;;;;1.30;1.20;;;19.10;99.90;;;;;;5004536;28;20218;-85
2022/06/27 01:00:33;;;;;;;1.50;1.40;;;19.10;99.90;;;;;;4998784;28;20292;-85
2022/06/27 01:02:59;;;;;;;3.63;2.60;;;19.10;99.90;;;;;;5002612;28;20213;-85
2022/06/27 01:05:25;;;;;;;1.70;1.23;;;;;;;;;;4998697;28;20274;-85
2022/06/27 01:07:51;;;;;;;1.50;1.40;;;19.10;99.90;;;;;;4997576;28;20193;-85
2022/06/27 01:10:17;;;;;;;2.07;1.47;;;;;;;;;;4998025;28;20226;-84
2022/06/27 01:12:43;;;;;;;3.57;1.40;;;19.10;99.90;;;;;;4998342;28;20722;-85
2022/06/27 01:15:10;;;;;;;1.50;1.33;;;19.20;99.90;;;;;;4997267;28;20190;-84
2022/06/27 01:17:37;;;;;;;2.60;1.30;;;19.10;99.90;;;;;;4995544;28;20190;-85
2022/06/27 01:20:03;;;;;;;1.43;1.33;;;19.10;99.90;;;;;;4995860;28;20626;-85
2022/06/27 01:22:30;;;;;;;1.70;1.40;;;19.10;99.90;;;;;;4995155;28;20186;-85
2022/06/27 01:24:56;;;;;;;1.40;1.20;;;19.10;99.90;;;;;;4995956;28;20175;-84
2022/06/27 01:27:22;;;;;;;1.47;1.37;;;19.00;99.90;;;;;;4996615;28;20167;-85
2022/06/27 01:29:48;;;;;;;1.50;1.40;;;19.00;99.90;;;;;;4999609;28;20184;-86
2022/06/27 01:32:14;;;;;;;2.60;1.70;;;;;;;;;;5003470;28;20573;-86
2022/06/27 01:34:40;;;;;;;1.53;1.30;;;19.10;99.90;;;;;;5003791;28;20187;-85
2022/06/27 01:37:06;;;;;;;1.60;1.50;;;19.00;99.90;;;;;;5003747;28;20248;-85
2022/06/27 01:39:31;;;;;;;1.87;1.50;;;19.00;99.90;;;;;;5004902;28;20212;-85
2022/06/27 01:42:00;;;;;;;3.70;1.60;;;19.00;99.90;;;;;;5004706;28;20184;-85
2022/06/27 01:44:28;;;;;;;1.90;1.60;;;19.00;99.90;;;;;;5004596;28;20744;-85
2022/06/27 01:47:05;;;;;;;2.50;1.77;;;19.00;99.90;;;;;;5006315;28;20219;-85
2022/06/27 01:49:32;;;;;;;2.03;1.47;;;18.90;99.90;;;;;;5005775;28;20171;-86
2022/06/27 01:52:01;;;;;;;4.47;1.80;;;18.90;99.90;;;;;;5005090;28;20179;-85
2022/06/27 01:54:27;;;;;;;2.60;2.10;;;18.90;99.90;;;;;;5006665;28;20623;-85
2022/06/27 01:56:54;;;;;;;3.67;1.80;;;;;;;;;;5008249;28;20255;-85
2022/06/27 01:59:24;;;;;;;1.80;1.50;;;19.00;99.90;;;;;;5006663;28;20184;-85
2022/06/27 02:01:50;;;;;;;3.77;1.60;;;18.90;99.90;;;;;;5005938;28;20210;-85
2022/06/27 02:04:17;;;;;;;3.40;1.50;;;18.90;99.90;;;;;;5004371;28;20211;-85
2022/06/27 02:06:45;;;;;;;3.63;1.60;;;18.90;99.90;;;;;;5004851;28;20741;-85
2022/06/27 02:09:13;;;;;;;3.83;1.70;;;18.80;99.90;;;;;;5005041;28;20249;-85
2022/06/27 02:11:40;;;;;;;3.17;1.83;;;18.80;99.90;;;;;;5006414;28;20597;-84
2022/06/27 02:14:06;;;;;;;3.80;1.50;;;18.80;99.90;;;;;;5005023;28;20546;-85
2022/06/27 02:16:32;;;;;;;1.70;1.43;;;18.80;99.90;;;;;;5006066;28;20187;-85
2022/06/27 02:18:58;;;;;;;1.97;1.67;;;;;;;;;;5006062;28;20274;-85
2022/06/27 02:21:27;;;;;;;4.07;2.00;;;18.80;99.90;;;;;;5006521;28;20573;-85
2022/06/27 02:23:54;;;;;;;2.33;1.30;;;18.70;99.90;;;;;;5007338;28;20215;-85
2022/06/27 02:26:28;;;;;;;2.97;1.50;;;18.70;99.90;;;;;;5007235;28;20184;-85
2022/06/27 02:28:54;;;;;;;2.03;1.40;;;18.70;99.90;;;;;;5007208;28;20660;-84
2022/06/27 02:31:21;;;;;;;3.20;1.80;;;18.70;99.90;;;;;;4999696;28;20266;-85
2022/06/27 02:33:48;;;;;;;1.67;1.30;;;18.70;99.90;;;;;;5006482;28;20216;-85
2022/06/27 02:36:21;;;;;;;2.50;1.70;;;18.70;99.90;;;;;;5020135;28;20212;-85
2022/06/27 02:38:50;;;;;;;2.60;1.50;;;18.80;99.90;;;;;;5014392;28;20201;-85
2022/06/27 02:41:18;;;;;;;2.13;1.80;;;18.70;99.90;;;;;;5003569;28;20205;-85
2022/06/27 02:43:48;;;;;;;1.83;1.50;;;18.60;99.90;;;;;;5002526;28;20220;-84
2022/06/27 02:46:14;;;;;;;4.97;1.87;;;;;;;;;;5002805;28;20706;-85
2022/06/27 02:48:40;;;;;;;2.90;1.50;;;18.60;99.90;;;;;;5003377;28;20207;-85
2022/06/27 02:51:10;;;;;;;2.00;1.80;;;18.60;99.90;;;;;;5003735;28;20201;-84
2022/06/27 02:54:00;;;;;;;2.97;1.47;;;18.60;99.90;;;;;;5003524;28;20242;-85
2022/06/27 02:56:27;;;;;;;2.57;1.73;;;18.60;99.90;;;;;;5005222;28;20242;-85
2022/06/27 02:59:06;;;;;;;2.37;1.97;;;18.50;99.90;;;;;;5000258;28;20188;-84
2022/06/27 03:01:35;;;;;;;1.87;1.77;;;18.50;99.90;;;;;;5000498;28;20240;-85
2022/06/27 03:04:01;;;;;;;2.73;1.83;;;;;;;;;;5000033;28;20208;-85
2022/06/27 03:06:27;;;;;;;4.70;1.80;;;18.40;99.90;;;;;;4999745;28;20180;-84
2022/06/27 03:08:53;;;;;;;2.87;1.80;;;18.20;99.90;;;;;;4999429;28;20184;-85
2022/06/27 03:11:22;;;;;;;6.07;2.17;;;18.30;99.90;;;;;;5001238;28;20191;-84
2022/06/27 03:13:48;;;;;;;2.83;2.20;;;;;;;;;;5000565;28;20190;-85
2022/06/27 03:16:14;;;;;;;2.93;2.10;;;18.20;99.90;;;;;;4999718;28;20253;-84
2022/06/27 03:18:41;;;;;;;4.63;1.80;;;;;;;;;;5000867;28;20185;-84
2022/06/27 03:21:07;;;;;;;2.33;1.90;;;;;;;;;;5001199;28;20565;-85
2022/06/27 03:23:33;;;;;;;4.27;2.07;;;;;;;;;;4999612;28;20213;-85
2022/06/27 03:25:59;;;;;;;5.67;2.47;;;;;;;;;;5000826;28;20203;-84
2022/06/27 03:28:26;;;;;;;2.60;2.10;;;;;;;;;;5000094;28;20181;-85
2022/06/27 03:30:52;;;;;;;5.07;2.50;;;;;;;;;;5005766;28;20211;-85
2022/06/27 03:33:18;;;;;;;2.93;2.20;;;;;;;;;;4996302;28;20184;-85
2022/06/27 03:35:44;;;;;;;3.27;1.87;;;;;;;;;;5001148;28;20181;-84
2022/06/27 03:38:12;;;;;;;4.60;2.13;;;17.90;99.90;;;;;;5004164;28;20661;-86
2022/06/27 03:40:38;;;;;;;2.30;2.10;;;;;;;;;;5005620;28;20223;-85
2022/06/27 03:43:05;;;;;;;2.43;2.23;;;;;;;;;;5004997;28;20216;-86
2022/06/27 03:45:31;;;;;;;4.33;2.43;;;;;;;;;;5006131;28;20176;-86
2022/06/27 03:47:59;;;;;;;6.67;2.23;;;17.90;99.90;;;;;;5005228;28;20180;-85
2022/06/27 03:50:26;;;;;;;2.70;2.50;;;17.90;99.90;;;;;;5006247;28;20203;-85
2022/06/27 03:52:53;;;;;;;2.57;2.30;;;17.80;99.90;;;;;;5007355;28;20231;-85
2022/06/27 03:55:19;;;;;;;2.17;1.97;;;;;;;;;;5008160;28;20197;-85
2022/06/27 03:57:53;;;;;;;3.27;2.27;;;17.80;99.90;;;;;;5009358;28;20179;-85
2022/06/27 04:00:39;;;;;;;3.13;2.20;;;17.80;99.90;;;;;;5007979;28;20211;-86
2022/06/27 04:03:05;;;;;;;3.00;2.47;;;;;;;;;;5010251;28;20219;-84
2022/06/27 04:05:31;;;;;;;3.87;2.47;;;;;;;;;;5004970;28;20184;-85
2022/06/27 04:07:57;;;;;;;2.53;2.33;;;;;;;;;;5003823;28;20230;-85
2022/06/27 04:10:24;;;;;;;3.67;2.67;;;;;;;;;;5003114;28;20199;-84
2022/06/27 04:12:50;;;;;;;4.87;2.67;;;;;;;;;;5003760;28;20639;-85
2022/06/27 04:15:16;;;;;;;5.00;2.80;;;;;;;;;;5003717;28;20199;-85
2022/06/27 04:17:42;;;;;;;3.67;2.50;;;;;;;;;;5004155;28;20530;-85
2022/06/27 04:20:08;;;;;;;4.70;2.73;;;;;;;;;;5004589;28;20271;-85
2022/06/27 04:22:34;;;;;;;7.90;2.50;;;;;;;;;;5004553;28;20233;-85
2022/06/27 04:25:01;;;;;;;2.60;2.40;;;;;;;;;;5004106;28;20180;-86
2022/06/27 04:27:28;;;;;;;3.03;2.73;;;;;;;;;;5004387;28;20180;-86
2022/06/27 04:29:54;;;;;;;2.97;2.60;;;17.90;99.90;;;;;;5007723;28;20204;-85
2022/06/27 04:32:22;;;;;;;4.83;3.17;;;17.90;99.90;;;;;;5006746;28;20203;-85
2022/06/27 04:34:48;;;;;;;2.93;2.73;;;;;;;;;;5000543;28;20259;-85
2022/06/27 04:37:16;;;;;;;3.50;3.00;;;;;;;;;;4998041;28;20196;-84
2022/06/27 04:39:42;;;;;;;3.77;3.00;;;;;;;;;;5001890;28;20211;-84
2022/06/27 04:42:08;;;;;;;3.27;2.67;;;;;;;;;;5016185;28;20192;-86
2022/06/27 04:44:39;;;;;;;4.10;2.60;;;18.10;99.90;;;;;;5016056;28;20680;-86
2022/06/27 04:47:08;;;;;;;3.97;2.37;;;;;;;;;;5004814;28;20182;-86
2022/06/27 04:49:37;;;;;;;3.17;2.50;;;;;;;;;;5004171;28;20645;-87
2022/06/27 04:52:06;;;;;;;2.83;2.27;;;18.20;99.90;;;;;;5002753;28;20186;-87
2022/06/27 04:54:32;;;;;;;2.60;2.20;;;;;;;;;;5003267;28;20173;-87
2022/06/27 04:56:58;;;;;;;3.03;2.57;;;;;;;;;;5001226;28;20654;-87
2022/06/27 04:59:25;;;;;;;2.30;2.10;;;;;;;;;;5001378;28;20181;-86
2022/06/27 05:01:51;;;;;;;3.03;2.50;;;;;;;;;;5001976;28;20279;-86
2022/06/27 05:04:21;;;;;;;4.37;2.40;;;18.40;99.90;;;;;;5001996;28;20277;-87
2022/06/27 05:06:47;;;;;;;3.57;2.27;;;18.50;99.90;;;;;;5002635;28;20173;-87
2022/06/27 05:09:14;;;;;;;4.03;2.50;;;;;;;;;;5001622;28;20182;-87
2022/06/27 05:11:41;;;;;;;3.83;2.03;;;18.60;99.90;;;;;;5001664;28;20232;-87
2022/06/27 05:14:07;;;;;;;2.73;2.33;;;;;;;;;;5001345;28;20182;-86
2022/06/27 05:16:34;;;;;;;2.90;2.00;;;;;;;;;;5001032;28;20187;-87
2022/06/27 05:19:00;;;;;;;2.87;2.30;;;;;;;;;;4999343;28;20622;-86
2022/06/27 05:21:26;;;;;;;2.70;2.43;;;;;;;;;;5000804;28;20206;-87
2022/06/27 05:23:52;;;;;;;6.10;2.63;;;;;;;;;;5000519;28;20212;-87
2022/06/27 05:26:18;;;;;;;3.00;2.20;;;;;;;;;;5000290;28;20197;-88
2022/06/27 05:28:45;;;;;;;6.47;2.47;;;;;;;;;;5000496;28;20186;-87
2022/06/27 07:05:11;;;;;;;1.70;1.60;;;21.50;99.90;;;;;;5142448;27;20273;-85
2022/06/27 07:07:43;;;;;;;2.43;1.70;;;21.60;99.90;;;;;;5126259;28;20179;-84
2022/06/27 07:10:11;;;;;;;1.97;1.60;;;21.70;99.90;;;;;;5148321;28;20597;-83
2022/06/27 07:12:38;;;;;;;2.50;1.77;;;21.80;99.90;;;;;;5136365;28;20170;-83
2022/06/27 07:15:05;;;;;;;1.87;1.63;;;21.80;99.90;;;;;;5136148;28;20180;-83
2022/06/27 07:17:48;;;;;;;1.87;1.50;;;21.90;99.90;;;;;;5135723;28;20173;-84
2022/06/27 07:20:19;;;;;;;1.77;1.67;;;22.00;99.90;;;;;;5137015;28;20234;-83
2022/06/27 07:22:45;;;;;;;2.67;1.93;;;22.10;99.90;;;;;;5135558;28;20245;-84
2022/06/27 07:25:11;;;;;;;3.43;1.60;;;22.20;99.90;;;;;;5136022;28;20225;-84
2022/06/27 07:27:39;;;;;;;2.87;1.40;;;22.20;99.90;;;;;;5137443;27;20580;-84
2022/06/27 07:30:09;;;;;;;2.00;1.57;;;22.20;99.90;;;;;;5135305;28;20197;-83
2022/06/27 07:32:35;;;;;;;1.80;1.70;;;22.30;99.90;;;;;;5135184;28;20174;-84
2022/06/27 07:35:01;;;;;;;3.63;1.70;;;22.40;99.90;;;;;;5137129;27;20174;-83
2022/06/27 07:37:27;;;;;;;1.50;1.40;;;22.50;99.90;;;;;;5134935;28;20178;-84
2022/06/27 07:39:54;;;;;;;1.60;1.50;;;22.60;99.90;;;;;;5133961;27;20282;-83
2022/06/27 07:42:20;;;;;;;1.57;1.47;;;22.60;99.90;;;;;;5133109;27;20170;-83
2022/06/27 07:44:47;;;;;;;1.60;1.50;;;22.70;99.90;;;;;;5130914;28;20232;-83
2022/06/27 07:47:12;;;;;;;1.90;1.70;;;22.70;99.90;;;;;;5135362;27;20193;-83
2022/06/27 07:49:39;;;;;;;1.77;1.43;;;22.80;99.90;;;;;;5138697;28;20183;-84
2022/06/27 07:52:05;;;;;;;2.13;1.50;;;22.90;99.90;;;;;;5140007;27;20167;-84
2022/06/27 07:54:30;;;;;;;2.03;1.80;;;23.00;99.90;;;;;;5139599;28;20272;-84
2022/06/27 07:56:56;;;;;;;2.80;1.63;;;23.10;99.90;;;;;;5141127;27;20175;-84
2022/06/27 07:59:22;;;;;;;1.60;1.50;;;23.20;99.90;;;;;;5140630;28;20174;-84
2022/06/27 08:01:49;;;;;;;1.50;1.40;;;23.30;99.90;;;;;;5140344;28;20222;-84
2022/06/27 08:04:15;;;;;;;3.33;1.50;;;23.50;99.90;;;;;;5140173;28;20211;-84
2022/06/27 08:06:42;;;;;;;2.53;1.60;;;23.50;99.90;;;;;;5140831;28;20167;-84
2022/06/27 08:09:09;;;;;;;2.67;2.10;;;23.60;99.90;;;;;;5143651;28;20257;-84
2022/06/27 08:11:41;;;;;;;2.80;1.80;;;23.60;99.90;;;;;;5142864;28;20537;-84
2022/06/27 08:14:13;;;;;;;2.30;1.70;;;23.70;99.90;;;;;;5141542;28;20206;-84
2022/06/27 08:16:41;;;;;;;3.40;1.60;;;23.70;99.90;;;;;;5126091;28;20180;-84
2022/06/27 08:19:09;;;;;;;3.13;2.23;;;23.80;99.90;;;;;;5125948;28;20176;-84
2022/06/27 08:21:37;;;;;;;2.43;1.80;;;23.90;99.90;;;;;;5126376;28;20223;-84
2022/06/27 08:24:07;;;;;;;3.97;1.50;;;24.00;99.90;;;;;;5126860;28;20208;-84
2022/06/27 08:26:35;;;;;;;3.43;1.63;;;24.10;99.90;;;;;;5127046;28;20159;-84
2022/06/27 08:29:04;;;;;;;5.00;2.03;;;24.10;99.90;;;;;;5126187;28;20172;-84
2022/06/27 08:31:31;;;;;;;1.90;1.80;;;24.20;99.90;;;;;;5126882;28;20195;-84
2022/06/27 08:34:00;;;;;;;1.70;1.60;;;24.30;99.90;;;;;;5126648;28;20171;-84
2022/06/27 08:36:30;;;;;;;2.43;1.33;;;24.40;99.90;;;;;;5128586;27;20178;-84
2022/06/27 08:38:57;;;;;;;2.40;1.63;;;24.50;99.90;;;;;;5130277;28;20175;-84
2022/06/27 08:41:24;;;;;;;2.43;1.93;;;24.60;99.90;;;;;;5128763;28;20192;-84
2022/06/27 08:43:55;;;;;;;3.73;1.67;;;24.70;99.90;;;;;;5127890;28;20256;-84
2022/06/27 08:46:22;;;;;;;3.73;1.70;;;24.90;99.90;;;;;;5132932;28;20193;-84
2022/06/27 08:48:49;;;;;;;1.87;1.30;;;24.90;99.90;;;;;;5129931;28;20205;-84
2022/06/27 08:51:15;;;;;;;1.60;1.43;;;25.10;99.90;;;;;;5126964;28;20729;-84
2022/06/27 08:53:41;;;;;;;3.03;1.50;;;25.10;99.90;;;;;;5129494;28;20188;-84
2022/06/27 08:56:10;;;;;;;3.80;1.40;;;25.20;99.90;;;;;;5132308;28;20173;-84
2022/06/27 08:58:37;;;;;;;7.83;1.77;;;25.30;99.90;;;;;;5131320;28;20185;-84
2022/06/27 09:01:03;;;;;;;3.20;1.60;;;25.40;99.90;;;;;;5123108;28;20215;-83
2022/06/27 09:03:30;;;;;;;2.40;1.67;;;25.50;99.90;;;;;;5122937;28;20212;-84
2022/06/27 09:06:10;;;;;;;5.27;1.70;;;25.60;99.90;;;;;;5124688;28;20541;-84
2022/06/27 09:09:03;;;;;;;3.90;1.83;;;25.70;99.90;;;;;;5122564;28;20184;-83
2022/06/27 09:11:32;;;;;;;1.20;1.03;;;25.90;99.90;;;;;;5122900;28;20206;-84
2022/06/27 09:13:58;;;;;;;4.00;1.23;;;26.00;99.90;;;;;;5122861;28;20216;-84
2022/06/27 09:16:25;;;;;;;2.00;1.80;;;;;;;;;;5123018;28;20186;-84
2022/06/27 09:18:51;;;;;;;2.83;1.60;;;26.20;99.90;;;;;;5123262;28;20212;-84
2022/06/27 09:21:17;;;;;;;3.27;1.73;;;26.40;99.90;;;;;;5123019;28;20201;-84
2022/06/27 09:24:00;;;;;;;2.43;1.40;;;26.30;99.90;;;;;;5123864;27;20237;-83
2022/06/27 09:26:35;;;;;;;2.63;1.17;;;26.50;99.90;;;;;;5121565;28;20200;-83
2022/06/27 09:29:14;;;;;;;1.60;1.20;;;26.60;99.90;;;;;;5125149;28;20201;-83
2022/06/27 09:31:42;;;;;;;7.97;1.20;;;26.80;99.90;;;;;;5120785;27;20187;-83
2022/06/27 09:34:16;;;;;;;2.70;1.40;;;26.90;99.90;;;;;;5118789;28;20180;-83
2022/06/27 09:36:50;;;;;;;2.20;1.70;;;27.00;99.90;;;;;;5119753;28;20159;-83
2022/06/27 09:39:20;;;;;;;7.23;1.27;;;27.10;99.90;;;;;;5119469;28;20160;-83
2022/06/27 09:41:54;;;;;;;5.60;1.40;;;27.10;99.90;;;;;;5118325;28;20195;-84
2022/06/27 09:44:24;;;;;;;3.40;1.47;;;27.20;99.90;;;;;;5117323;28;20649;-83
2022/06/27 09:46:58;;;;;;;11.87;2.10;;;27.30;99.90;;;;;;5116176;28;20183;-83
2022/06/27 09:49:29;;;;;;;5.20;1.60;;;27.40;99.90;;;;;;5115109;28;20640;-83
2022/06/27 09:51:56;;;;;;;4.47;1.40;;;27.40;99.90;;;;;;5115386;28;20188;-83
2022/06/27 09:54:23;;;;;;;2.27;1.50;;;27.60;99.90;;;;;;5122709;28;20320;-83
2022/06/27 09:56:50;;;;;;;1.43;1.30;;;27.50;99.90;;;;;;5124745;28;20262;-85
2022/06/27 09:59:16;;;;;;;2.07;1.20;;;27.70;99.90;;;;;;5123810;28;20179;-84
2022/06/27 10:01:43;;;;;;;9.80;1.50;;;27.60;99.90;;;;;;5124728;28;20727;-85
2022/06/27 10:04:10;;;;;;;4.23;1.90;;;27.80;99.90;;;;;;5122655;28;20211;-84
2022/06/27 10:06:39;;;;;;;2.93;1.30;;;27.90;99.90;;;;;;5123442;28;20180;-84
2022/06/27 10:09:08;;;;;;;3.60;1.57;;;27.90;99.90;;;;;;5124545;28;20170;-84
2022/06/27 10:11:36;;;;;;;3.33;1.37;;;28.00;99.90;;;;;;5124907;28;20199;-84
2022/06/27 10:14:22;;;;;;;1.63;1.30;;;28.10;99.90;;;;;;5124050;28;20221;-85
2022/06/27 10:16:53;;;;;;;5.60;1.20;;;28.20;99.90;;;;;;5125965;28;20180;-84
2022/06/27 10:19:21;;;;;;;5.67;1.63;;;28.30;99.90;;;;;;5124675;28;20179;-85
2022/06/27 10:21:48;;;;;;;1.40;1.30;;;28.30;99.90;;;;;;5128895;28;20673;-83
2022/06/27 10:24:26;;;;;;;1.77;1.43;;;28.30;99.90;;;;;;5129362;28;20222;-83
2022/06/27 10:26:54;;;;;;;3.73;1.30;;;28.40;99.90;;;;;;5126771;28;20184;-84
2022/06/27 10:29:35;;;;;;;1.90;1.67;;;28.50;99.90;;;;;;5124545;28;20176;-85
2022/06/27 10:32:02;;;;;;;3.13;1.43;;;28.60;99.90;;;;;;5126945;28;20172;-84
2022/06/27 10:34:37;;;;;;;2.00;1.23;;;28.80;99.90;;;;;;5106925;28;20664;-83
2022/06/27 10:37:24;;;;;;;1.90;1.40;;;28.90;99.90;;;;;;5122402;28;20231;-83
2022/06/27 10:40:19;;;;;;;2.67;1.80;;;29.00;99.90;;;;;;5121763;28;20635;-84
2022/06/27 10:42:56;;;;;;;1.30;1.20;;;29.00;99.90;;;;;;5095137;28;20185;-83
2022/06/27 10:45:22;;;;;;;2.27;1.40;;;29.10;99.90;;;;;;5121811;28;20255;-83
2022/06/27 10:47:48;;;;;;;1.37;1.00;;;29.10;99.90;;;;;;5122066;28;20219;-84
2022/06/27 10:50:16;;;;;;;1.87;1.33;;;29.10;99.90;;;;;;5123685;28;20295;-82
2022/06/27 10:52:42;;;;;;;5.37;1.20;;;29.10;99.90;;;;;;5123560;28;20183;-83
2022/06/27 10:55:32;;;;;;;3.90;1.30;;;29.30;99.90;;;;;;5123605;28;20247;-83
2022/06/27 10:57:58;;;;;;;4.27;1.20;;;29.50;99.90;;;;;;5123820;28;20181;-83
2022/06/27 11:00:42;;;;;;;1.83;1.30;;;29.70;99.90;;;;;;5125109;28;20292;-83
2022/06/27 11:03:26;;;;;;;1.80;1.20;;;29.80;99.90;;;;;;5130431;28;20217;-83
2022/06/27 11:05:55;;;;;;;2.70;1.53;;;30.10;99.90;;;;;;5136006;28;20172;-83
2022/06/27 11:08:23;;;;;;;2.47;1.30;;;30.10;99.90;;;;;;5126988;28;20179;-83
2022/06/27 11:10:50;;;;;;;2.23;1.50;;;30.20;99.90;;;;;;5121248;28;20198;-84
2022/06/27 11:13:35;;;;;;;2.00;1.50;;;30.30;99.90;;;;;;5121151;28;20685;-83
2022/06/27 11:16:01;;;;;;;2.33;1.50;;;30.40;99.90;;;;;;5122409;28;20250;-83
2022/06/27 11:18:27;;;;;;;2.43;1.50;;;30.40;99.90;;;;;;5125284;28;20172;-84
2022/06/27 11:20:57;;;;;;;2.27;1.50;;;30.10;99.90;;;;;;5124972;28;20206;-83
2022/06/27 11:23:23;;;;;;;2.23;1.30;;;29.40;99.90;;;;;;5124670;28;20201;-82
2022/06/27 11:25:50;;;;;;;1.97;1.43;;;29.30;99.90;;;;;;5123439;28;20175;-84
2022/06/27 11:33:46;;;;;;;1.73;1.10;;;28.80;99.90;;;;;;5123720;28;20190;-84
2022/06/27 11:36:13;;;;;;;1.20;1.10;;;29.10;99.90;;;;;;5123923;28;20561;-84
2022/06/27 11:38:47;;;;;;;2.63;1.13;;;29.30;99.90;;;;;;5121284;28;20184;-83
2022/06/27 11:41:26;;;;;;;1.30;1.20;;;29.30;99.90;;;;;;5121835;28;20558;-83
2022/06/27 11:43:54;;;;;;;5.23;1.03;;;29.00;99.90;;;;;;5120384;28;20203;-82
2022/06/27 11:46:30;;;;;;;5.30;1.50;;;29.10;99.90;;;;;;5121919;28;20266;-83
2022/06/27 11:48:59;;;;;;;1.37;1.20;;;29.10;99.90;;;;;;5119566;28;20183;-82
2022/06/27 11:51:31;;;;;;;3.97;1.10;;;29.10;99.90;;;;;;5121967;28;20246;-82
2022/06/27 11:54:03;;;;;;;2.00;1.00;;;29.20;99.90;;;;;;5119747;28;20233;-82
2022/06/27 11:56:31;;;;;;;5.73;1.00;;;29.50;99.90;;;;;;5117244;28;20179;-82
2022/06/27 11:58:58;;;;;;;2.60;0.90;;;29.70;99.90;;;;;;5122501;28;20207;-83
2022/06/27 12:01:25;;;;;;;1.93;1.10;;;30.00;99.90;;;;;;5127987;28;20200;-84
2022/06/27 12:04:13;;;;;;;1.80;1.07;;;30.20;99.90;;;;;;5126714;28;20733;-84
2022/06/27 12:06:52;;;;;;;2.97;1.10;;;30.10;99.90;;;;;;5128770;28;20169;-82
2022/06/27 12:09:19;;;;;;;2.83;1.30;;;29.70;99.90;;;;;;5128917;28;20167;-83
2022/06/27 12:11:56;;;;;;;4.83;1.40;;;29.40;99.90;;;;;;5126499;28;20197;-83
2022/06/27 12:14:23;;;;;;;5.33;1.40;;;29.60;99.90;;;;;;5128001;28;20649;-83
2022/06/27 12:16:52;;;;;;;1.30;1.20;;;29.50;99.90;;;;;;5125958;28;20192;-83
2022/06/27 12:19:18;;;;;;;1.50;1.20;;;28.90;99.90;;;;;;5125533;28;20234;-82
2022/06/27 12:21:45;;;;;;;1.30;1.20;;;28.50;99.90;;;;;;5126828;28;20552;-83
2022/06/27 12:24:12;;;;;;;1.57;1.17;;;28.30;99.90;;;;;;5124982;28;20206;-82
2022/06/27 12:26:38;;;;;;;4.40;1.27;;;28.20;99.90;;;;;;5124981;28;20546;-85
2022/06/27 12:29:04;;;;;;;1.30;0.90;;;28.70;99.90;;;;;;5125380;28;20176;-82
2022/06/27 12:31:36;;;;;;;2.23;0.90;;;29.00;99.90;;;;;;5126956;28;20660;-83
2022/06/27 12:34:02;;;;;;;3.00;1.00;;;29.30;99.90;;;;;;5124746;28;20242;-82
2022/06/27 12:36:30;;;;;;;1.10;0.87;;;29.60;99.90;;;;;;5125661;28;20183;-83
2022/06/27 12:38:56;;;;;;;2.43;1.07;;;29.40;99.90;;;;;;5125012;28;20205;-82
2022/06/27 12:41:22;;;;;;;1.17;1.00;;;;;;;;;;5124043;28;20224;-83
2022/06/27 12:43:48;;;;;;;1.37;1.07;;;28.10;99.90;;;;;;5125073;28;20213;-83
2022/06/27 12:46:15;;;;;;;3.00;1.13;;;27.80;99.90;;;;;;5127335;28;20167;-82
2022/06/27 12:48:42;;;;;;;2.30;1.20;;;27.10;99.90;;;;;;5127667;28;20170;-83
2022/06/27 12:51:08;;;;;;;1.83;1.30;;;27.00;99.90;;;;;;5128028;28;20197;-82
2022/06/27 12:53:35;;;;;;;4.57;1.00;;;26.90;99.90;;;;;;5128009;28;20187;-82
2022/06/27 12:56:02;;;;;;;4.17;1.40;;;;;;;;;;5127858;28;20205;-82
2022/06/27 12:58:32;;;;;;;2.27;1.10;;;26.40;99.90;;;;;;5125105;28;20513;-82
2022/06/27 13:00:58;;;;;;;1.30;1.20;;;26.20;99.90;;;;;;5127222;28;20208;-83
2022/06/27 13:03:24;;;;;;;1.70;1.10;;;;;;;;;;5126107;28;20210;-82
2022/06/27 13:05:50;;;;;;;1.30;1.00;;;26.30;99.90;;;;;;5124173;28;20174;-82
2022/06/27 13:08:16;;;;;;;6.20;1.20;;;;;;;;;;5110366;28;20180;-82
2022/06/27 13:10:43;;;;;;;3.03;1.10;;;26.40;99.90;;;;;;5127479;28;20276;-82
2022/06/27 13:13:09;;;;;;;2.67;1.40;;;;;;;;;;5128908;28;20198;-82
2022/06/27 13:15:35;;;;;;;2.90;1.10;;;;;;;;;;5129308;28;20178;-82
2022/06/27 13:18:06;;;;;;;2.40;1.30;;;26.30;99.90;;;;;;5126496;28;20186;-82
2022/06/27 13:20:32;;;;;;;6.30;1.60;;;26.20;99.90;;;;;;5126040;28;20276;-83
2022/06/27 13:22:58;;;;;;;5.20;1.60;;;;;;;;;;5123979;28;20183;-82
2022/06/27 13:25:24;;;;;;;1.60;1.17;;;26.00;99.90;;;;;;5123484;28;20231;-82
2022/06/27 13:27:50;;;;;;;2.33;1.60;;;25.90;99.90;;;;;;5125215;27;20161;-81
2022/06/27 13:30:16;;;;;;;3.13;1.40;;;25.90;99.90;;;;;;5124183;28;20288;-82
2022/06/27 13:32:42;;;;;;;1.87;1.10;;;;;;;;;;5125981;28;20190;-83
2022/06/27 13:35:08;;;;;;;3.37;1.43;;;25.90;99.90;;;;;;5125802;28;20231;-83
2022/06/27 13:37:35;;;;;;;1.70;1.20;;;25.90;99.90;;;;;;5127751;28;20228;-83
2022/06/27 13:40:02;;;;;;;1.97;1.30;;;;;;;;;;5129568;28;20219;-83
2022/06/27 13:42:28;;;;;;;4.10;1.30;;;;;;;;;;5128483;28;20867;-83
2022/06/27 13:44:54;;;;;;;1.73;1.43;;;;;;;;;;5122219;28;20226;-82
2022/06/27 13:47:20;;;;;;;2.00;1.30;;;;;;;;;;5124507;28;20166;-83
2022/06/27 13:49:50;;;;;;;3.73;1.50;;;25.90;99.90;;;;;;5122198;28;20174;-82
2022/06/27 13:52:16;;;;;;;8.47;1.50;;;25.90;99.90;;;;;;5122805;28;20177;-82
2022/06/27 13:54:42;;;;;;;2.73;1.23;;;;;;;;;;5122450;28;20196;-83
2022/06/27 13:57:10;;;;;;;3.10;1.50;;;;;;;;;;5122177;28;20642;-83
2022/06/27 13:59:36;;;;;;;4.70;1.20;;;;;;;;;;5123524;28;20171;-82
2022/06/27 14:02:02;;;;;;;2.07;1.17;;;;;;;;;;5120789;28;20174;-81
2022/06/27 14:04:29;;;;;;;1.30;1.20;;;;;;;;;;5116128;28;20289;-82
2022/06/27 14:09:40;;;;;;;1.50;1.40;;;;;;;;;;5123400;28;20202;-82
2022/06/27 14:12:06;;;;;;;3.20;1.20;;;;;;;;;;5123320;28;20217;-82
2022/06/27 14:14:32;;;;;;;3.63;1.40;;;;;;;;;;5120887;28;20176;-82
2022/06/27 14:16:58;;;;;;;1.60;1.20;;;25.60;99.90;;;;;;5120957;28;20184;-82
2022/06/27 14:19:24;;;;;;;1.27;1.03;;;;;;;;;;5122848;28;20198;-82
2022/06/27 14:21:50;;;;;;;1.30;1.20;;;;;;;;;;5121367;28;20216;-82
2022/06/27 14:24:17;;;;;;;1.93;1.20;;;;;;;;;;5121412;28;20200;-82
2022/06/27 14:26:43;;;;;;;2.37;1.40;;;;;;;;;;5122006;28;20236;-82
2022/06/27 14:29:09;;;;;;;4.70;1.30;;;;;;;;;;5123392;28;20185;-83
2022/06/27 14:31:35;;;;;;;2.27;1.20;;;25.50;99.90;;;;;;5122118;28;20195;-83
2022/06/27 14:34:01;;;;;;;2.73;1.10;;;;;;;;;;5121961;28;20548;-84
2022/06/27 14:36:27;;;;;;;1.60;1.20;;;;;;;;;;5122201;28;20618;-83
2022/06/27 14:38:53;;;;;;;3.30;1.23;;;25.40;99.90;;;;;;5121309;28;20201;-83
2022/06/27 14:41:19;;;;;;;6.80;1.40;;;25.60;99.90;;;;;;5122050;28;20211;-84
2022/06/27 14:43:45;;;;;;;1.97;1.20;;;;;;;;;;5124578;28;20330;-84
2022/06/27 14:46:12;;;;;;;5.03;1.37;;;;;;;;;;5124942;28;20620;-84
2022/06/27 14:48:38;;;;;;;1.47;1.23;;;;;;;;;;5123095;28;20605;-84
2022/06/27 14:51:04;;;;;;;3.17;1.10;;;;;;;;;;5123919;28;20206;-83
2022/06/27 14:53:31;;;;;;;3.43;1.20;;;;;;;;;;5125305;28;20269;-83
2022/06/27 14:55:57;;;;;;;4.30;1.40;;;;;;;;;;5125336;28;20199;-84
2022/06/27 14:58:23;;;;;;;5.93;1.47;;;;;;;;;;5125827;28;20209;-83
2022/06/27 15:00:50;;;;;;;4.40;1.73;;;;;;;;;;5125133;28;20227;-84
2022/06/27 15:03:16;;;;;;;2.27;1.17;;;;;;;;;;5124011;28;20265;-84